Lleida, Spain
Current Conditions -  °F | °C
As of 8:30 PM on Thursday 23 Oct 2014 (Local Time) from LERS Reporting Station
Clear Clear  
Wind Chill: 66°   Ceiling: Unl
Heat Index: 66°   Visibility: 6mi
Dew Point: 34°   Wind: 0mph
Humidity: 30%   Direction: NA
Pressure: 30"   Gusts: NA
Location:  41.61°N, 0.63°E
Report Text: LERS 231830Z 00000KT CAVOK 19/01 Q1016
Loading
Personal Weather Stations






























Interactive Weather Map
Tropical Storm Tracking
New forecast layout! Learn more

10-Day Weather Forecast

Advertisements
Track Severe Weather on mobile